Time;durP1;ratioP1;P1;durP2;ratioP2;P2;SDS_P1;SDS_P2;PMS_P1;PMS_P2;Temp;Humidity;BMP_temperature;BMP_pressure;BME280_temperature;BME280_humidity;BME280_pressure;Samples;Min_cycle;Max_cycle;Signal;HPM_P1;HPM_P2
2022/06/04 00:01:24;;;;;;;3.22;2.58;;;;;;;;;;5038528;28;20237;-73
2022/06/04 00:03:49;;;;;;;2.63;2.00;;;;;;;;;;5039053;28;20182;-73
2022/06/04 00:06:15;;;;;;;4.45;2.20;;;;;;;;;;5043070;28;20865;-73
2022/06/04 00:08:40;;;;;;;5.18;2.50;;;;;;;;;;5041233;28;20175;-73
2022/06/04 00:16:33;;;;;;;3.53;2.15;;;;;;;;;;5040562;28;20205;-73
2022/06/04 00:18:58;;;;;;;3.83;2.00;;;;;;;;;;5040261;28;20186;-73
2022/06/04 00:21:24;;;;;;;2.45;2.25;;;;;;;;;;5044239;28;20202;-72
2022/06/04 00:23:49;;;;;;;3.83;2.47;;;;;;;;;;5043943;28;20551;-73
2022/06/04 00:26:15;;;;;;;6.22;2.53;;;;;;;;;;5043013;28;20206;-72
2022/06/04 00:28:40;;;;;;;3.70;2.40;;;;;;;;;;5045891;28;20177;-72
2022/06/04 00:31:06;;;;;;;4.28;2.50;;;;;;;;;;5047512;28;20180;-73
2022/06/04 00:33:31;;;;;;;4.15;2.67;;;;;;;;;;5043795;28;20603;-72
2022/06/04 00:35:57;;;;;;;2.55;2.35;;;;;;;;;;5041225;28;20274;-72
2022/06/04 00:38:24;;;;;;;5.07;2.53;;;;;;;;;;5036116;28;20177;-72
2022/06/04 00:40:50;;;;;;;2.63;2.30;;;;;;;;;;5043734;28;20205;-73
2022/06/04 00:43:15;;;;;;;6.47;3.65;;;;;;;;;;5048031;28;20816;-73
2022/06/04 00:45:59;;;;;;;3.58;2.50;;;;;;;;;;5050051;28;20271;-72
2022/06/04 00:48:25;;;;;;;2.60;2.40;;;;;;;;;;5038418;28;20523;-72
2022/06/04 00:50:50;;;;;;;6.57;2.97;;;;;;;;;;5046464;28;20197;-72
2022/06/04 00:53:16;;;;;;;3.57;2.57;;;;;;;;;;5040203;28;20194;-72
2022/06/04 00:55:47;;;;;;;4.35;2.67;;;;;;;;;;5041225;28;20190;-72
2022/06/04 00:58:23;;;;;;;2.75;2.55;;;;;;;;;;5040386;28;20190;-72
2022/06/04 01:00:48;;;;;;;5.63;2.50;;;;;;;;;;5039316;28;20259;-73
2022/06/04 01:03:26;;;;;;;5.72;2.53;;;;;;;;;;5038846;28;20178;-72
2022/06/04 01:06:06;;;;;;;3.75;2.63;;;;;;;;;;5040191;28;20259;-73
2022/06/04 01:08:34;;;;;;;2.95;2.20;;;;;;;;;;5036726;28;20174;-72
2022/06/04 01:11:05;;;;;;;5.18;2.90;;;;;;;;;;5043056;28;20189;-72
2022/06/04 01:13:42;;;;;;;2.72;2.53;;;;;;;;;;5033631;28;20531;-72
2022/06/04 01:16:08;;;;;;;3.37;2.80;;;;;;;;;;5041634;28;20280;-72
2022/06/04 01:18:51;;;;;;;4.43;3.00;;;;;;;;;;5037663;28;20654;-72
2022/06/04 01:21:27;;;;;;;4.60;2.90;;;;;;;;;;5044649;28;20202;-73
2022/06/04 01:23:52;;;;;;;3.30;3.00;;;;;;;;;;5040940;28;20232;-73
2022/06/04 01:26:36;;;;;;;2.83;2.47;;;;;;;;;;5040128;28;20241;-72
2022/06/04 01:29:07;;;;;;;2.63;2.42;;;;;;;;;;5046772;28;20204;-73
2022/06/04 01:31:39;;;;;;;5.40;3.35;;;;;;;;;;5037988;28;20548;-72
2022/06/04 01:34:06;;;;;;;3.65;3.35;;;;;;;;;;5040862;28;20240;-73
2022/06/04 01:36:44;;;;;;;5.72;3.20;;;;;;;;;;5044481;28;20206;-73
2022/06/04 01:39:13;;;;;;;10.52;3.83;;;;;;;;;;5047944;28;20185;-72
2022/06/04 01:41:41;;;;;;;4.63;3.35;;;;;;;;;;5047538;28;20236;-73
2022/06/04 01:44:12;;;;;;;5.32;3.83;;;;;;;;;;5044978;28;20233;-72
2022/06/04 01:46:42;;;;;;;4.33;3.93;;;;;;;;;;5040430;28;20258;-72
2022/06/04 01:49:14;;;;;;;5.90;4.23;;;;;;;;;;5038524;28;20269;-73
2022/06/04 01:51:39;;;;;;;5.45;4.00;;;;;;;;;;5028356;28;20233;-72
2022/06/04 01:54:14;;;;;;;6.20;4.53;;;;;;;;;;5043750;28;20918;-72
2022/06/04 01:56:42;;;;;;;4.35;3.95;;;;;;;;;;5045079;28;20247;-72
2022/06/04 01:59:15;;;;;;;5.07;3.80;;;;;;;;;;5042384;28;20190;-73
2022/06/04 02:01:41;;;;;;;5.50;4.25;;;;;;;;;;5041617;28;20263;-72
2022/06/04 02:04:07;;;;;;;5.80;4.33;;;;;;;;;;5042320;28;20182;-72
2022/06/04 02:06:38;;;;;;;6.23;3.80;;;;;;;;;;5038089;28;20675;-73
2022/06/04 02:09:16;;;;;;;4.10;3.63;;;;;;;;;;5034984;28;20659;-72
2022/06/04 02:11:48;;;;;;;8.03;5.40;;;;;;;;;;5036052;28;20200;-72
2022/06/04 02:14:13;;;;;;;5.37;3.60;;;;;;;;;;5034453;28;20182;-73
2022/06/04 02:16:44;;;;;;;6.20;4.77;;;;;;;;;;5044863;28;20199;-73
2022/06/04 02:19:09;;;;;;;7.47;4.50;;;;;;;;;;5045462;28;20276;-73
2022/06/04 02:21:35;;;;;;;6.10;4.10;;;;;;;;;;5036513;28;20194;-73
2022/06/04 02:24:01;;;;;;;5.67;4.33;;;;;;;;;;5034046;28;20224;-73
2022/06/04 02:26:27;;;;;;;6.40;4.17;;;;;;;;;;5032889;28;20702;-72
2022/06/04 02:28:53;;;;;;;7.10;5.07;;;;;;;;;;5034074;28;20554;-72
2022/06/04 02:31:24;;;;;;;6.10;4.23;;;;;;;;;;5039419;28;20181;-72
2022/06/04 02:34:01;;;;;;;6.23;5.33;;;;;;;;;;5041252;28;20182;-73
2022/06/04 02:36:51;;;;;;;5.90;4.30;;;;;;;;;;5039897;28;20204;-72
2022/06/04 02:39:22;;;;;;;4.27;3.83;;;;;;;;;;5031863;28;20296;-73
2022/06/04 02:41:48;;;;;;;6.17;4.30;;;;;;;;;;5033623;28;20216;-72
2022/06/04 02:44:13;;;;;;;4.40;4.00;;;;;;;;;;5036912;28;20174;-72
2022/06/04 02:46:44;;;;;;;6.23;3.93;;;;;;;;;;5035010;28;20618;-73
2022/06/04 02:49:21;;;;;;;4.50;3.77;;;;;;;;;;5035009;28;20177;-72
2022/06/04 02:51:49;;;;;;;5.90;4.00;;;;;;;;;;5033690;28;20170;-72
2022/06/04 02:54:20;;;;;;;6.80;4.20;;;;;;;;;;5034550;28;20177;-72
2022/06/04 02:56:46;;;;;;;7.70;4.20;;;;;;;;;;5036966;28;20185;-73
2022/06/04 02:59:13;;;;;;;9.03;3.93;;;;;;;;;;5045496;28;20178;-72
2022/06/04 03:01:41;;;;;;;5.33;4.10;;;;;;;;;;5024511;28;20233;-72
2022/06/04 03:04:07;;;;;;;4.33;3.90;;;;;;;;;;5036566;28;20179;-72
2022/06/04 03:06:33;;;;;;;5.00;3.80;;;;;;;;;;5038553;28;20204;-73
2022/06/04 03:09:00;;;;;;;5.20;4.33;;;;;;;;;;5040483;28;20793;-73
2022/06/04 03:11:26;;;;;;;4.40;3.87;;;;;;;;;;5035467;28;20201;-74
2022/06/04 03:13:51;;;;;;;5.73;4.10;;;;;;;;;;5043812;28;20183;-72
2022/06/04 03:16:16;;;;;;;4.37;3.87;;;;;;;;;;5030747;28;20385;-74
2022/06/04 03:18:42;;;;;;;5.03;4.27;;;;;;;;;;5041492;28;20177;-73
2022/06/04 03:21:07;;;;;;;4.40;3.77;;;;;;;;;;5039495;28;20256;-74
2022/06/04 03:23:33;;;;;;;7.37;4.03;;;;;;;;;;5044230;28;20565;-73
2022/06/04 03:25:58;;;;;;;4.43;3.97;;;;;;;;;;5040843;28;20209;-72
2022/06/04 03:28:23;;;;;;;4.97;4.47;;;;;;;;;;5039810;28;20186;-72
2022/06/04 03:30:48;;;;;;;5.53;3.90;;;;;;;;;;5048355;28;20173;-72
2022/06/04 03:33:14;;;;;;;5.70;4.03;;;;;;;;;;5053248;28;20186;-74
2022/06/04 03:35:39;;;;;;;6.07;4.37;;;;;;;;;;5047030;28;20205;-73
2022/06/04 03:38:04;;;;;;;7.10;4.10;;;;;;;;;;5052709;28;20178;-74
2022/06/04 03:40:30;;;;;;;4.53;3.80;;;;;;;;;;5046192;28;20188;-73
2022/06/04 03:42:55;;;;;;;4.80;4.00;;;;;;;;;;5055008;28;20739;-73
2022/06/04 03:45:21;;;;;;;6.60;4.10;;;;;;;;;;5043439;28;20289;-73
2022/06/04 03:47:46;;;;;;;6.90;4.37;;;;;;;;;;5048216;28;20549;-74
2022/06/04 03:50:14;;;;;;;4.70;3.90;;;;;;;;;;5050012;28;20182;-72
2022/06/04 03:52:39;;;;;;;5.37;4.40;;;;;;;;;;5050751;28;20231;-72
2022/06/04 03:55:05;;;;;;;5.67;4.07;;;;;;;;;;5047717;28;20201;-75
2022/06/04 03:57:38;;;;;;;7.57;4.23;;;;;;;;;;5051152;28;20706;-72
2022/06/04 04:00:21;;;;;;;5.30;3.83;;;;;;;;;;5046990;28;20581;-72
2022/06/04 04:02:56;;;;;;;5.43;3.70;;;;;;;;;;5051598;28;20201;-72
2022/06/04 04:05:23;;;;;;;6.53;3.63;;;;;;;;;;5055692;28;20841;-72
2022/06/04 04:07:49;;;;;;;5.93;3.97;;;;;;;;;;5042496;28;20182;-73
2022/06/04 04:10:15;;;;;;;5.00;3.77;;;;;;;;;;5037892;28;20276;-73
2022/06/04 04:12:40;;;;;;;4.93;3.87;;;;;;;;;;5044481;28;20277;-73
2022/06/04 04:15:06;;;;;;;5.97;4.03;;;;;;;;;;5045918;28;20220;-73
2022/06/04 04:17:31;;;;;;;7.47;4.00;;;;;;;;;;5040240;28;20267;-72
2022/06/04 04:19:56;;;;;;;6.40;4.10;;;;;;;;;;5041944;28;20213;-73
2022/06/04 04:22:22;;;;;;;6.37;3.70;;;;;;;;;;5047231;28;20646;-74
2022/06/04 04:24:47;;;;;;;9.17;4.53;;;;;;;;;;5047148;28;20259;-72
2022/06/04 04:27:12;;;;;;;6.67;4.53;;;;;;;;;;5043269;28;20186;-72
2022/06/04 04:29:38;;;;;;;7.63;3.80;;;;;;;;;;5042391;28;20264;-72
2022/06/04 04:32:03;;;;;;;6.80;4.63;;;;;;;;;;5047773;28;20181;-72
2022/06/04 04:34:29;;;;;;;6.60;4.35;;;;;;;;;;5051767;28;20235;-73
2022/06/04 04:36:54;;;;;;;7.75;4.30;;;;;;;;;;5040024;28;20233;-72
2022/06/04 04:39:19;;;;;;;6.40;4.32;;;;;;;;;;5049918;28;20173;-75
2022/06/04 04:41:44;;;;;;;9.85;5.78;;;;;;;;;;5041224;28;20217;-74
2022/06/04 04:44:09;;;;;;;8.60;4.75;;;;;;;;;;5047766;28;20178;-74
2022/06/04 04:46:35;;;;;;;9.93;4.53;;;;;;;;;;5047278;28;20712;-72
2022/06/04 04:49:00;;;;;;;9.48;4.63;;;;;;;;;;5047063;28;20185;-73
2022/06/04 04:51:26;;;;;;;6.07;4.25;;;;;;;;;;5038747;28;20194;-72
2022/06/04 04:53:52;;;;;;;10.32;4.38;;;;;;;;;;5040512;28;20182;-73
2022/06/04 04:56:18;;;;;;;7.35;4.20;;;;;;;;;;5044587;28;20703;-72
2022/06/04 04:58:43;;;;;;;9.82;4.95;;;;;;;;;;5050341;28;20690;-72
2022/06/04 05:01:15;;;;;;;6.95;4.38;;;;;;;;;;5049614;28;20225;-73
2022/06/04 05:03:44;;;;;;;9.77;5.43;;;;;;;;;;5043339;28;20186;-73
2022/06/04 05:06:10;;;;;;;6.85;4.30;;;;;;;;;;5036584;28;20558;-73
2022/06/04 05:08:35;;;;;;;5.85;4.47;;;;;;;;;;5037061;28;20648;-73
2022/06/04 05:11:08;;;;;;;5.72;4.55;;;;;;;;;;5032866;28;20201;-72
2022/06/04 05:13:33;;;;;;;7.32;4.95;;;;;;;;;;5040980;28;20166;-73
2022/06/04 05:15:58;;;;;;;6.90;4.55;;;;;;;;;;5035364;28;20762;-73
2022/06/04 05:18:23;;;;;;;9.70;4.72;;;;;;;;;;5042642;28;20205;-72
2022/06/04 05:20:48;;;;;;;9.77;4.40;;;;;;;;;;5045669;28;20590;-73
2022/06/04 05:23:14;;;;;;;6.93;4.38;;;;;;;;;;5046060;28;20299;-74
2022/06/04 05:25:39;;;;;;;8.10;4.93;;;;;;;;;;5041420;28;20675;-74
2022/06/04 05:28:04;;;;;;;11.75;5.72;;;;;;;;;;5043188;28;20276;-74
2022/06/04 05:30:29;;;;;;;6.47;4.85;;;;;;;;;;5039900;28;20533;-74
2022/06/04 05:32:55;;;;;;;6.90;5.45;;;;;;;;;;5037409;28;20260;-74
2022/06/04 05:35:20;;;;;;;5.18;4.38;;;;;;;;;;5042287;28;20285;-74
2022/06/04 05:37:45;;;;;;;8.73;5.35;;;;;;;;;;5045946;28;20197;-73
2022/06/04 05:40:10;;;;;;;6.70;5.38;;;;;;;;;;5048121;28;20186;-74
2022/06/04 05:42:36;;;;;;;7.25;4.80;;;;;;;;;;5035065;28;20529;-73
2022/06/04 05:45:01;;;;;;;9.85;5.55;;;;;;;;;;5045416;28;20202;-73
2022/06/04 05:47:26;;;;;;;9.65;5.43;;;;;;;;;;5033812;28;20479;-72
2022/06/04 05:49:52;;;;;;;9.55;4.95;;;;;;;;;;5043878;28;20170;-74
2022/06/04 05:52:17;;;;;;;9.07;6.65;;;;;;;;;;5043332;28;20185;-74
2022/06/04 05:54:42;;;;;;;10.43;5.20;;;;;;;;;;5040340;28;20197;-74
2022/06/04 05:57:07;;;;;;;7.57;4.90;;;;;;;;;;5040178;28;20271;-74
2022/06/04 05:59:33;;;;;;;8.52;5.97;;;;;;;;;;5044337;28;20256;-74
2022/06/04 06:01:58;;;;;;;8.32;5.68;;;;;;;;;;5043616;28;20256;-74
2022/06/04 06:04:26;;;;;;;7.60;4.90;;;;;;;;;;5043775;28;20257;-74
2022/06/04 06:06:52;;;;;;;12.13;6.43;;;;;;;;;;5041501;28;20691;-74
2022/06/04 06:09:18;;;;;;;7.03;5.53;;;;;;;;;;5037343;28;20178;-74
2022/06/04 06:11:44;;;;;;;9.43;5.65;;;;;;;;;;5039364;28;20193;-74
2022/06/04 06:14:09;;;;;;;10.93;6.30;;;;;;;;;;5035174;28;20231;-74
2022/06/04 06:16:35;;;;;;;7.85;5.40;;;;;;;;;;5039700;28;20206;-74
2022/06/04 06:19:01;;;;;;;5.45;4.88;;;;;;;;;;5038582;28;20186;-74
2022/06/04 06:21:29;;;;;;;7.88;4.72;;;;;;;;;;5032887;28;20220;-75
2022/06/04 06:23:54;;;;;;;7.03;4.88;;;;;;;;;;5033341;28;20221;-72
2022/06/04 06:26:21;;;;;;;8.27;5.25;;;;;;;;;;5036548;28;20675;-72
2022/06/04 06:28:46;;;;;;;10.63;5.40;;;;;;;;;;5034211;28;20440;-74
2022/06/04 06:31:14;;;;;;;7.78;4.65;;;;;;;;;;5030220;28;20670;-73
2022/06/04 06:33:40;;;;;;;8.63;5.13;;;;;;;;;;5041997;28;20213;-72
2022/06/04 06:36:07;;;;;;;7.45;5.45;;;;;;;;;;5029868;28;20232;-73
2022/06/04 06:38:32;;;;;;;6.65;4.63;;;;;;;;;;5033374;28;20178;-73
2022/06/04 06:40:58;;;;;;;8.02;4.57;;;;;;;;;;5040619;28;20268;-73
2022/06/04 06:43:31;;;;;;;8.32;5.18;;;;;;;;;;5033527;28;20182;-73
2022/06/04 06:46:03;;;;;;;8.05;5.22;;;;;;;;;;5037606;28;20193;-73
2022/06/04 06:48:28;;;;;;;6.10;4.47;;;;;;;;;;5031092;28;20905;-72
2022/06/04 06:50:53;;;;;;;7.57;4.50;;;;;;;;;;5036041;28;20248;-73
2022/06/04 06:53:18;;;;;;;8.35;5.10;;;;;;;;;;5033963;28;20174;-73
2022/06/04 06:55:44;;;;;;;6.78;4.35;;;;;;;;;;5039955;28;20212;-73
2022/06/04 06:58:09;;;;;;;9.70;5.60;;;;;;;;;;5035376;28;20678;-73
2022/06/04 07:00:35;;;;;;;8.32;4.85;;;;;;;;;;5031789;28;20197;-73
2022/06/04 07:03:00;;;;;;;8.30;4.85;;;;;;;;;;5027630;28;20619;-74
2022/06/04 07:05:26;;;;;;;5.65;4.25;;;;;;;;;;5032381;28;20225;-73
2022/06/04 07:07:51;;;;;;;6.35;4.80;;;;;;;;;;5034578;28;20304;-73
2022/06/04 07:10:16;;;;;;;7.82;4.35;;;;;;;;;;5033899;28;20663;-73
2022/06/04 07:12:42;;;;;;;8.80;4.35;;;;;;;;;;5036433;28;20273;-73
2022/06/04 07:15:08;;;;;;;4.72;4.13;;;;;;;;;;5032714;28;20516;-73
2022/06/04 07:17:33;;;;;;;6.68;4.30;;;;;;;;;;5034607;28;20224;-73
2022/06/04 07:19:58;;;;;;;5.60;3.70;;;;;;;;;;5039127;28;20701;-74
2022/06/04 07:22:24;;;;;;;8.68;4.72;;;;;;;;;;5028761;28;20214;-73
2022/06/04 07:24:49;;;;;;;7.60;5.05;;;;;;;;;;5031892;28;20304;-73
2022/06/04 07:27:14;;;;;;;6.30;4.47;;;;;;;;;;5034153;28;20202;-73
2022/06/04 07:29:39;;;;;;;6.97;4.32;;;;;;;;;;5031798;28;20552;-74
2022/06/04 07:32:05;;;;;;;6.60;4.53;;;;;;;;;;5033001;28;20181;-73
2022/06/04 07:34:30;;;;;;;4.97;3.53;;;;;;;;;;5037655;28;20203;-73
2022/06/04 07:36:55;;;;;;;5.43;4.00;;;;;;;;;;5034296;28;20220;-73
2022/06/04 07:39:21;;;;;;;5.82;4.55;;;;;;;;;;5032926;28;20182;-73
2022/06/04 07:41:51;;;;;;;5.88;4.07;;;;;;;;;;5035724;28;20190;-73
2022/06/04 07:44:16;;;;;;;5.35;3.85;;;;;;;;;;5031134;28;20186;-73
2022/06/04 07:46:42;;;;;;;6.80;4.22;;;;;;;;;;5035909;28;20238;-73
2022/06/04 07:49:08;;;;;;;9.63;4.55;;;;;;;;;;5032224;28;20174;-73
2022/06/04 07:51:33;;;;;;;7.28;3.88;;;;;;;;;;5033416;28;20236;-73
2022/06/04 07:53:59;;;;;;;5.80;3.95;;;;;;;;;;5028443;28;20184;-73
2022/06/04 07:56:24;;;;;;;8.32;4.28;;;;;;;;;;5033660;28;20214;-73
2022/06/04 07:58:50;;;;;;;7.63;4.07;;;;;;;;;;5028306;28;20196;-73
2022/06/04 08:01:16;;;;;;;6.82;4.63;;;;;;;;;;5032617;28;20218;-73
2022/06/04 08:03:42;;;;;;;7.13;3.97;;;;;;;;;;5031412;28;20648;-73
2022/06/04 08:06:08;;;;;;;5.72;4.32;;;;;;;;;;5029517;28;20633;-74
2022/06/04 08:08:34;;;;;;;5.40;4.03;;;;;;;;;;5031999;28;20191;-74
2022/06/04 08:11:00;;;;;;;4.65;3.90;;;;;;;;;;5039393;28;20550;-73
2022/06/04 08:13:25;;;;;;;9.63;4.20;;;;;;;;;;5053122;28;20239;-73
2022/06/04 08:15:53;;;;;;;4.32;3.88;;;;;;;;;;5048307;28;20205;-73
2022/06/04 08:18:18;;;;;;;7.03;4.32;;;;;;;;;;5039236;28;20178;-73
2022/06/04 08:20:44;;;;;;;8.88;4.63;;;;;;;;;;5046175;28;20239;-73
2022/06/04 08:23:09;;;;;;;5.18;4.45;;;;;;;;;;5051945;28;20189;-73
2022/06/04 08:25:42;;;;;;;7.18;5.20;;;;;;;;;;5035044;28;20213;-73
2022/06/04 08:28:07;;;;;;;7.32;4.60;;;;;;;;;;5037113;28;20192;-73
2022/06/04 08:30:33;;;;;;;6.05;4.43;;;;;;;;;;5036245;28;20174;-73
2022/06/04 08:32:58;;;;;;;9.68;4.28;;;;;;;;;;5033934;28;20189;-74
2022/06/04 08:35:24;;;;;;;7.40;3.95;;;;;;;;;;5035810;28;20427;-74
2022/06/04 08:37:50;;;;;;;5.22;4.07;;;;;;;;;;5038857;28;20180;-74
2022/06/04 08:40:23;;;;;;;5.47;3.75;;;;;;;;;;5029834;28;20190;-73
2022/06/04 08:42:54;;;;;;;5.30;3.50;;;;;;;;;;5034662;28;20413;-73
2022/06/04 08:45:20;;;;;;;6.07;4.45;;;;;;;;;;5033464;28;20289;-74
2022/06/04 08:47:48;;;;;;;6.13;4.20;;;;;;;;;;5034763;28;20683;-73
2022/06/04 08:50:18;;;;;;;5.65;4.03;;;;;;;;;;5033807;28;20174;-74
2022/06/04 08:52:46;;;;;;;4.85;3.90;;;;;;;;;;5035825;28;20178;-74
2022/06/04 08:58:07;;;;;;;5.88;3.85;;;;;;;;;;5031743;28;20273;-73
2022/06/04 09:00:35;;;;;;;6.03;3.78;;;;;;;;;;5030968;28;20189;-73
2022/06/04 09:03:21;;;;;;;7.07;3.65;;;;;;;;;;5033867;28;20190;-73
2022/06/04 09:05:57;;;;;;;7.00;4.60;;;;;;;;;;5030289;28;20190;-73
2022/06/04 09:08:28;;;;;;;5.00;3.70;;;;;;;;;;5032138;28;20178;-74
2022/06/04 09:10:57;;;;;;;7.32;3.72;;;;;;;;;;5038539;28;20190;-73
2022/06/04 09:13:30;;;;;;;8.25;3.90;;;;;;;;;;5036516;28;20538;-73
2022/06/04 09:15:57;;;;;;;6.18;4.00;;;;;;;;;;5030643;28;20280;-73
2022/06/04 09:18:25;;;;;;;7.47;3.70;;;;;;;;;;5032198;28;20197;-73
2022/06/04 09:21:01;;;;;;;6.45;4.53;;;;;;;;;;5030327;28;20177;-73
2022/06/04 09:23:35;;;;;;;7.63;3.95;;;;;;;;;;5034536;28;20251;-73
2022/06/04 09:26:06;;;;;;;6.20;4.07;;;;;;;;;;5034514;28;20193;-73
2022/06/04 09:28:43;;;;;;;6.40;4.15;;;;;;;;;;5029153;28;20269;-73
2022/06/04 09:31:27;;;;;;;6.13;3.67;;;;;;;;;;5031931;28;20182;-73
2022/06/04 09:33:52;;;;;;;6.28;3.90;;;;;;;;;;5032155;28;20227;-73
2022/06/04 09:36:22;;;;;;;9.18;4.03;;;;;;;;;;5025844;28;20210;-73
2022/06/04 09:38:51;;;;;;;4.70;4.15;;;;;;;;;;5031017;28;20644;-73
2022/06/04 09:41:19;;;;;;;6.90;3.72;;;;;;;;;;5032830;28;20209;-73
2022/06/04 09:43:45;;;;;;;5.00;3.35;;;;;;;;;;5030461;28;20185;-73
2022/06/04 09:46:13;;;;;;;7.43;4.10;;;;;;;;;;5027783;28;20204;-73
2022/06/04 09:48:42;;;;;;;7.68;3.83;;;;;;;;;;5037915;28;20169;-73
2022/06/04 09:51:18;;;;;;;5.03;4.20;;;;;;;;;;5027686;28;20196;-73
2022/06/04 09:53:46;;;;;;;4.22;3.42;;;;;;;;;;5027858;28;20185;-73
2022/06/04 09:56:16;;;;;;;6.43;3.63;;;;;;;;;;5030744;28;20205;-73
2022/06/04 09:58:46;;;;;;;4.90;3.85;;;;;;;;;;5031352;28;20198;-72
2022/06/04 10:01:14;;;;;;;6.15;3.80;;;;;;;;;;5029399;28;20201;-73
2022/06/04 10:03:39;;;;;;;4.70;3.58;;;;;;;;;;5037825;28;20223;-73
2022/06/04 10:06:07;;;;;;;4.60;3.45;;;;;;;;;;5033798;28;20193;-74
2022/06/04 10:09:55;;;;;;;4.10;3.67;;;;;;;;;;5031180;28;20182;-73
2022/06/04 10:11:21;;;;;;;5.28;3.72;;;;;;;;;;5030950;28;20189;-73
2022/06/04 10:13:48;;;;;;;4.25;3.00;;;;;;;;;;5033521;28;20610;-73
2022/06/04 10:16:23;;;;;;;7.50;3.60;;;;;;;;;;5031120;28;20748;-73
2022/06/04 10:19:07;;;;;;;5.18;3.50;;;;;;;;;;5028125;28;20308;-73
2022/06/04 10:21:37;;;;;;;4.57;3.72;;;;;;;;;;5028809;28;20260;-73
2022/06/04 10:24:07;;;;;;;4.22;3.17;;;;;;;;;;5031848;28;20173;-73
2022/06/04 10:26:38;;;;;;;6.53;3.42;;;;;;;;;;5030749;28;20193;-73
2022/06/04 10:29:03;;;;;;;4.93;3.58;;;;;;;;;;5040082;28;20738;-73
2022/06/04 10:31:41;;;;;;;4.70;3.17;;;;;;;;;;5034914;28;20188;-73
2022/06/04 10:34:09;;;;;;;4.95;3.28;;;;;;;;;;5036343;28;20180;-73
2022/06/04 10:36:40;;;;;;;4.88;3.25;;;;;;;;;;5033874;28;20205;-73
2022/06/04 10:39:19;;;;;;;5.50;3.60;;;;;;;;;;5030939;28;20218;-73
2022/06/04 10:41:52;;;;;;;4.85;3.20;;;;;;;;;;5034707;28;20236;-73
2022/06/04 10:44:35;;;;;;;5.53;3.47;;;;;;;;;;5037109;28;20197;-73
2022/06/04 10:47:03;;;;;;;6.32;3.13;;;;;;;;;;5035122;28;20200;-73
2022/06/04 10:49:41;;;;;;;7.25;3.63;;;;;;;;;;5035568;28;20201;-73
2022/06/04 10:52:25;;;;;;;4.15;3.70;;;;;;;;;;5032110;28;20272;-72
2022/06/04 10:54:50;;;;;;;4.10;3.40;;;;;;;;;;5032947;28;20206;-73
2022/06/04 10:57:27;;;;;;;5.33;3.63;;;;;;;;;;5030778;28;20280;-72
2022/06/04 11:00:10;;;;;;;4.95;3.33;;;;;;;;;;5037359;28;20414;-73
2022/06/04 11:02:39;;;;;;;4.65;3.13;;;;;;;;;;5037112;28;20206;-73
2022/06/04 11:05:06;;;;;;;4.18;3.55;;;;;;;;;;5039202;28;20221;-73
2022/06/04 11:07:37;;;;;;;5.45;3.42;;;;;;;;;;5033205;28;20185;-73
2022/06/04 11:10:06;;;;;;;4.30;3.47;;;;;;;;;;5022810;28;20510;-73
2022/06/04 11:12:34;;;;;;;3.58;2.90;;;;;;;;;;5023556;28;20188;-73
2022/06/04 11:15:03;;;;;;;4.22;3.22;;;;;;;;;;5022856;28;20201;-73
2022/06/04 11:17:44;;;;;;;5.22;3.03;;;;;;;;;;5035757;28;20200;-73
2022/06/04 11:20:12;;;;;;;4.40;3.28;;;;;;;;;;5018489;28;20252;-73
2022/06/04 11:22:38;;;;;;;6.05;3.67;;;;;;;;;;5019958;28;20320;-72
2022/06/04 11:25:24;;;;;;;3.95;3.30;;;;;;;;;;5019510;28;20210;-72
2022/06/04 11:27:52;;;;;;;4.65;3.13;;;;;;;;;;5017825;28;20564;-72
2022/06/04 11:30:34;;;;;;;7.80;3.38;;;;;;;;;;5017647;28;20178;-72
2022/06/04 11:33:00;;;;;;;5.28;3.55;;;;;;;;;;5017604;28;20582;-72
2022/06/04 11:35:46;;;;;;;3.77;3.03;;;;;;;;;;5025180;28;20217;-72
2022/06/04 11:38:38;;;;;;;4.75;3.80;;;;;;;;;;5018961;28;20469;-72
2022/06/04 11:41:06;;;;;;;4.88;3.45;;;;;;;;;;5018243;28;20601;-72
2022/06/04 11:43:46;;;;;;;4.82;3.08;;;;;;;;;;5039785;28;20173;-72
2022/06/04 11:46:24;;;;;;;4.82;3.50;;;;;;;;;;5021062;28;20212;-72
2022/06/04 11:48:57;;;;;;;4.38;2.85;;;;;;;;;;5017987;28;20758;-72
2022/06/04 11:51:43;;;;;;;5.28;2.97;;;;;;;;;;5019885;28;20560;-72
2022/06/04 11:54:24;;;;;;;6.60;3.72;;;;;;;;;;5021484;28;20185;-72
2022/06/04 11:56:54;;;;;;;4.03;3.15;;;;;;;;;;5019715;28;20292;-72
2022/06/04 11:59:37;;;;;;;5.53;3.42;;;;;;;;;;5020521;28;21260;-72
2022/06/04 12:02:06;;;;;;;4.65;3.45;;;;;;;;;;5020074;28;20209;-73
2022/06/04 12:04:32;;;;;;;3.55;3.17;;;;;;;;;;5031629;28;20176;-72
2022/06/04 12:07:09;;;;;;;3.28;2.97;;;;;;;;;;5021311;28;20170;-73
2022/06/04 12:09:34;;;;;;;5.28;3.05;;;;;;;;;;5018267;28;20315;-72
2022/06/04 12:11:59;;;;;;;3.87;3.50;;;;;;;;;;5022194;28;20189;-72
2022/06/04 12:14:33;;;;;;;4.30;3.20;;;;;;;;;;5022784;28;20188;-71
2022/06/04 12:16:58;;;;;;;3.67;3.28;;;;;;;;;;5020062;28;20529;-72
2022/06/04 12:25:00;;;;;;;4.50;3.13;;;;;;;;;;5018892;28;20228;-73
2022/06/04 12:27:25;;;;;;;5.28;3.38;;;;;;;;;;5019275;28;20820;-73
2022/06/04 12:29:53;;;;;;;3.25;2.80;;;;;;;;;;5025028;28;20615;-73
2022/06/04 12:32:29;;;;;;;4.00;3.13;;;;;;;;;;5022875;28;20193;-72
2022/06/04 12:35:07;;;;;;;5.28;2.83;;;;;;;;;;5021720;28;20205;-72
2022/06/04 12:37:38;;;;;;;5.38;3.85;;;;;;;;;;5018263;28;20802;-72
2022/06/04 12:40:18;;;;;;;4.82;3.22;;;;;;;;;;5025674;28;20603;-72
2022/06/04 12:42:55;;;;;;;3.90;3.10;;;;;;;;;;5019772;28;20212;-72
2022/06/04 12:45:33;;;;;;;5.35;2.85;;;;;;;;;;5018758;28;20193;-72
2022/06/04 12:47:58;;;;;;;4.43;3.67;;;;;;;;;;5018018;28;20166;-72
2022/06/04 12:50:31;;;;;;;5.43;3.33;;;;;;;;;;5017389;28;20186;-72
2022/06/04 12:52:59;;;;;;;5.03;3.53;;;;;;;;;;5019167;28;20243;-72
2022/06/04 12:55:24;;;;;;;4.72;3.55;;;;;;;;;;5017566;28;20221;-72
2022/06/04 12:57:50;;;;;;;4.70;3.30;;;;;;;;;;5017034;28;20269;-72
2022/06/04 13:00:18;;;;;;;3.67;3.10;;;;;;;;;;5015176;28;20671;-72
2022/06/04 13:02:55;;;;;;;4.43;3.50;;;;;;;;;;5020082;28;20458;-72
2022/06/04 13:05:22;;;;;;;5.82;3.10;;;;;;;;;;5023465;28;20206;-73
2022/06/04 13:07:53;;;;;;;4.22;3.33;;;;;;;;;;5017567;28;20177;-73
2022/06/04 13:10:36;;;;;;;4.53;3.80;;;;;;;;;;5019318;28;20224;-73
2022/06/04 13:13:14;;;;;;;5.28;3.20;;;;;;;;;;5026403;28;20190;-73
2022/06/04 13:15:42;;;;;;;4.78;3.15;;;;;;;;;;5017768;28;20201;-73
2022/06/04 13:18:16;;;;;;;4.07;3.40;;;;;;;;;;5014580;28;20197;-73
2022/06/04 13:20:44;;;;;;;4.28;3.20;;;;;;;;;;5024371;28;20749;-73
2022/06/04 13:23:18;;;;;;;4.85;3.20;;;;;;;;;;5016441;28;20693;-72
2022/06/04 13:26:03;;;;;;;4.10;3.40;;;;;;;;;;5016859;28;20247;-73
2022/06/04 13:28:33;;;;;;;4.72;2.97;;;;;;;;;;5016169;28;20190;-71
2022/06/04 13:31:00;;;;;;;6.80;3.33;;;;;;;;;;5018387;28;20183;-72
2022/06/04 13:33:26;;;;;;;3.88;3.00;;;;;;;;;;5018191;28;20180;-71
2022/06/04 13:35:52;;;;;;;6.05;3.40;;;;;;;;;;5018797;28;20774;-71
2022/06/04 13:38:43;;;;;;;3.95;3.30;;;;;;;;;;5016355;28;20189;-72
2022/06/04 13:44:42;;;;;;;4.10;2.95;;;;;;;;;;5017076;28;20761;-72
2022/06/04 13:47:18;;;;;;;3.90;3.10;;;;;;;;;;5015017;28;20202;-72
2022/06/04 13:49:45;;;;;;;5.00;3.17;;;;;;;;;;5017245;28;20181;-72
2022/06/04 13:52:12;;;;;;;4.10;2.58;;;;;;;;;;5015702;28;20186;-72
2022/06/04 13:54:39;;;;;;;4.93;3.60;;;;;;;;;;5018835;28;20632;-72
2022/06/04 13:57:13;;;;;;;4.53;3.15;;;;;;;;;;5017836;28;20190;-73
2022/06/04 13:59:42;;;;;;;5.50;3.53;;;;;;;;;;5016118;28;20177;-73
2022/06/04 14:02:11;;;;;;;3.33;2.95;;;;;;;;;;5014418;28;20214;-73
2022/06/04 14:07:30;;;;;;;3.33;3.03;;;;;;;;;;5040944;28;20255;-71
2022/06/04 14:09:55;;;;;;;4.22;2.88;;;;;;;;;;5033902;28;20169;-73
2022/06/04 14:12:36;;;;;;;3.50;3.00;;;;;;;;;;5022832;28;20216;-72
2022/06/04 14:15:09;;;;;;;3.95;2.88;;;;;;;;;;5020612;28;20237;-72
2022/06/04 14:17:49;;;;;;;4.55;3.22;;;;;;;;;;5029393;28;20182;-72
2022/06/04 14:20:25;;;;;;;3.35;3.03;;;;;;;;;;5015495;28;21201;-72
2022/06/04 14:22:53;;;;;;;4.45;3.10;;;;;;;;;;5014668;28;20201;-72
2022/06/04 14:25:28;;;;;;;3.83;2.45;;;;;;;;;;5016574;28;20228;-72
2022/06/04 14:27:53;;;;;;;3.75;2.95;;;;;;;;;;5016829;28;20664;-72
2022/06/04 14:30:20;;;;;;;3.57;2.97;;;;;;;;;;5013967;28;20542;-72
2022/06/04 14:32:53;;;;;;;3.38;2.78;;;;;;;;;;5016259;28;20435;-72
2022/06/04 14:35:18;;;;;;;4.60;3.13;;;;;;;;;;5016828;28;20685;-72
2022/06/04 14:37:44;;;;;;;3.00;2.53;;;;;;;;;;5014878;28;20186;-72
2022/06/04 14:40:11;;;;;;;3.80;2.92;;;;;;;;;;5017964;28;20186;-73
2022/06/04 14:42:42;;;;;;;5.40;3.00;;;;;;;;;;5016688;28;21044;-72
2022/06/04 14:45:14;;;;;;;5.00;2.70;;;;;;;;;;5017027;28;20197;-72
2022/06/04 14:47:46;;;;;;;3.90;2.58;;;;;;;;;;5017352;28;20566;-72
2022/06/04 14:50:24;;;;;;;3.17;2.85;;;;;;;;;;5016449;28;20269;-73
2022/06/04 14:52:51;;;;;;;3.13;2.83;;;;;;;;;;5022595;28;20212;-72
2022/06/04 14:55:21;;;;;;;4.43;2.88;;;;;;;;;;5017617;28;20230;-72
2022/06/04 14:57:56;;;;;;;5.88;3.10;;;;;;;;;;5016646;28;20198;-72
2022/06/04 15:00:27;;;;;;;3.38;3.03;;;;;;;;;;5017097;28;20182;-72
2022/06/04 15:03:07;;;;;;;5.93;2.88;;;;;;;;;;5015213;28;20202;-72
2022/06/04 15:05:34;;;;;;;4.65;3.00;;;;;;;;;;5017913;28;20955;-72
2022/06/04 15:08:06;;;;;;;4.30;3.28;;;;;;;;;;5012808;28;20186;-73
2022/06/04 15:10:33;;;;;;;5.20;2.45;;;;;;;;;;5012944;28;20190;-73
2022/06/04 15:12:59;;;;;;;3.05;2.75;;;;;;;;;;5017143;28;20178;-72
2022/06/04 15:15:24;;;;;;;4.22;3.13;;;;;;;;;;5018171;28;20936;-73